<?xml version="1.0" encoding="UTF-8" standalone="no" ?>
<gpx xmlns="http://www.topografix.com/GPX/1/1" xmlns:xsi="http://www.w3.org/2001/XMLSchema-instance" xsi:schemaLocation="http://www.topografix.com/GPX/1/1 http://www.topografix.com/GPX/1/1/gpx.xsd" version="1.1" creator="VisuGPX - https://www.visugpx.com">
  <metadata>
    <name>Tour du Cheiron</name>
    <desc><![CDATA[Circuit entre Gréolières et Gréolières-les-Neiges. Intérêt moyen.]]></desc>
  </metadata>
  <trk>
    <name><![CDATA[Tracé]]></name>
    <trkseg>
      <trkpt lat="43.79591" lon="6.98105">
        <ele>785.6289063</ele>
      </trkpt>
      <trkpt lat="43.79591" lon="6.98108">
        <ele>785.9882813</ele>
      </trkpt>
      <trkpt lat="43.79605" lon="6.98144">
        <ele>792.140625</ele>
      </trkpt>
      <trkpt lat="43.79707" lon="6.98115">
        <ele>819.9296875</ele>
      </trkpt>
      <trkpt lat="43.79715" lon="6.98194">
        <ele>836.6054688</ele>
      </trkpt>
      <trkpt lat="43.79729" lon="6.98305">
        <ele>850.296875</ele>
      </trkpt>
      <trkpt lat="43.79707" lon="6.98407">
        <ele>853.6953125</ele>
      </trkpt>
      <trkpt lat="43.7971" lon="6.98407">
        <ele>854.7578125</ele>
      </trkpt>
      <trkpt lat="43.79766" lon="6.98453">
        <ele>874.1171875</ele>
      </trkpt>
      <trkpt lat="43.79766" lon="6.98457">
        <ele>873.6796875</ele>
      </trkpt>
      <trkpt lat="43.79815" lon="6.98506">
        <ele>894.1953125</ele>
      </trkpt>
      <trkpt lat="43.79844" lon="6.98546">
        <ele>899.4453125</ele>
      </trkpt>
      <trkpt lat="43.79844" lon="6.98542">
        <ele>899.9765625</ele>
      </trkpt>
      <trkpt lat="43.79863" lon="6.9844">
        <ele>916.015625</ele>
      </trkpt>
      <trkpt lat="43.79866" lon="6.98441">
        <ele>866.2851563</ele>
        <time>2012-09-22T08:35:47Z</time>
      </trkpt>
      <trkpt lat="43.79925" lon="6.98281">
        <ele>889.3566895</ele>
        <time>2012-09-22T08:38:27Z</time>
      </trkpt>
      <trkpt lat="43.79939" lon="6.98311">
        <ele>897.0473633</ele>
        <time>2012-09-22T08:39:15Z</time>
      </trkpt>
      <trkpt lat="43.79946" lon="6.98301">
        <ele>899.9313965</ele>
        <time>2012-09-22T08:39:35Z</time>
      </trkpt>
      <trkpt lat="43.79962" lon="6.98275">
        <ele>903.7766113</ele>
        <time>2012-09-22T08:40:04Z</time>
      </trkpt>
      <trkpt lat="43.79973" lon="6.98274">
        <ele>906.6604004</ele>
        <time>2012-09-22T08:40:22Z</time>
      </trkpt>
      <trkpt lat="43.79974" lon="6.98298">
        <ele>909.5446777</ele>
        <time>2012-09-22T08:40:42Z</time>
      </trkpt>
      <trkpt lat="43.79991" lon="6.98276">
        <ele>915.7932129</ele>
        <time>2012-09-22T08:41:20Z</time>
      </trkpt>
      <trkpt lat="43.80039" lon="6.98264">
        <ele>933.5773926</ele>
        <time>2012-09-22T08:43:03Z</time>
      </trkpt>
      <trkpt lat="43.80053" lon="6.98284">
        <ele>940.3068848</ele>
        <time>2012-09-22T08:43:42Z</time>
      </trkpt>
      <trkpt lat="43.8007" lon="6.98298">
        <ele>946.5554199</ele>
        <time>2012-09-22T08:44:23Z</time>
      </trkpt>
      <trkpt lat="43.80073" lon="6.98275">
        <ele>948.9584961</ele>
        <time>2012-09-22T08:44:45Z</time>
      </trkpt>
      <trkpt lat="43.80081" lon="6.9829">
        <ele>951.8425293</ele>
        <time>2012-09-22T08:45:03Z</time>
      </trkpt>
      <trkpt lat="43.80172" lon="6.98355">
        <ele>977.7980957</ele>
        <time>2012-09-22T08:48:08Z</time>
      </trkpt>
      <trkpt lat="43.80188" lon="6.98377">
        <ele>981.6433105</ele>
        <time>2012-09-22T08:48:42Z</time>
      </trkpt>
      <trkpt lat="43.8032" lon="6.98285">
        <ele>1034.5158691</ele>
        <time>2012-09-22T08:55:17Z</time>
      </trkpt>
      <trkpt lat="43.8035" lon="6.98291">
        <ele>1043.1677246</ele>
        <time>2012-09-22T08:56:09Z</time>
      </trkpt>
      <trkpt lat="43.80363" lon="6.98294">
        <ele>1044.6096191</ele>
        <time>2012-09-22T08:56:27Z</time>
      </trkpt>
      <trkpt lat="43.80411" lon="6.98336">
        <ele>1051.3388672</ele>
        <time>2012-09-22T08:57:07Z</time>
      </trkpt>
      <trkpt lat="43.80476" lon="6.98347">
        <ele>1061.4328613</ele>
        <time>2012-09-22T08:58:26Z</time>
      </trkpt>
      <trkpt lat="43.80496" lon="6.98293">
        <ele>1060.4714355</ele>
        <time>2012-09-22T08:58:45Z</time>
      </trkpt>
      <trkpt lat="43.80524" lon="6.97886">
        <ele>1072.0073242</ele>
        <time>2012-09-22T09:00:39Z</time>
      </trkpt>
      <trkpt lat="43.80525" lon="6.97872">
        <ele>1072.0073242</ele>
        <time>2012-09-22T09:00:43Z</time>
      </trkpt>
      <trkpt lat="43.80485" lon="6.97756">
        <ele>1082.5817871</ele>
        <time>2012-09-22T09:01:38Z</time>
      </trkpt>
      <trkpt lat="43.80455" lon="6.97691">
        <ele>1086.4272461</ele>
        <time>2012-09-22T09:02:09Z</time>
      </trkpt>
      <trkpt lat="43.80424" lon="6.97632">
        <ele>1084.5046387</ele>
        <time>2012-09-22T09:02:26Z</time>
      </trkpt>
      <trkpt lat="43.80416" lon="6.97533">
        <ele>1083.0622559</ele>
        <time>2012-09-22T09:02:44Z</time>
      </trkpt>
      <trkpt lat="43.80401" lon="6.97433">
        <ele>1094.1176758</ele>
        <time>2012-09-22T09:04:09Z</time>
      </trkpt>
      <trkpt lat="43.80403" lon="6.97405">
        <ele>1097.9628906</ele>
        <time>2012-09-22T09:04:40Z</time>
      </trkpt>
      <trkpt lat="43.80413" lon="6.97391">
        <ele>1099.4047852</ele>
        <time>2012-09-22T09:04:54Z</time>
      </trkpt>
      <trkpt lat="43.80386" lon="6.97339">
        <ele>1099.4047852</ele>
        <time>2012-09-22T09:05:16Z</time>
      </trkpt>
      <trkpt lat="43.80353" lon="6.97332">
        <ele>1100.3664551</ele>
        <time>2012-09-22T09:05:30Z</time>
      </trkpt>
      <trkpt lat="43.80344" lon="6.9729">
        <ele>1102.7695313</ele>
        <time>2012-09-22T09:05:45Z</time>
      </trkpt>
      <trkpt lat="43.80344" lon="6.97286">
        <ele>1102.7695313</ele>
        <time>2012-09-22T09:05:47Z</time>
      </trkpt>
      <trkpt lat="43.80363" lon="6.97251">
        <ele>1111.4213867</ele>
        <time>2012-09-22T09:06:19Z</time>
      </trkpt>
      <trkpt lat="43.80347" lon="6.97222">
        <ele>1116.2280273</ele>
        <time>2012-09-22T09:06:49Z</time>
      </trkpt>
      <trkpt lat="43.80351" lon="6.97204">
        <ele>1118.1506348</ele>
        <time>2012-09-22T09:07:03Z</time>
      </trkpt>
      <trkpt lat="43.80385" lon="6.97195">
        <ele>1127.2832031</ele>
        <time>2012-09-22T09:08:00Z</time>
      </trkpt>
      <trkpt lat="43.80388" lon="6.97184">
        <ele>1129.2055664</ele>
        <time>2012-09-22T09:08:15Z</time>
      </trkpt>
      <trkpt lat="43.80368" lon="6.97145">
        <ele>1132.5705566</ele>
        <time>2012-09-22T09:08:50Z</time>
      </trkpt>
      <trkpt lat="43.80366" lon="6.97102">
        <ele>1139.7802734</ele>
        <time>2012-09-22T09:09:32Z</time>
      </trkpt>
      <trkpt lat="43.80384" lon="6.96943">
        <ele>1158.0454102</ele>
        <time>2012-09-22T09:11:40Z</time>
      </trkpt>
      <trkpt lat="43.80376" lon="6.96934">
        <ele>1159.0065918</ele>
        <time>2012-09-22T09:11:59Z</time>
      </trkpt>
      <trkpt lat="43.8037" lon="6.96875">
        <ele>1156.6032715</ele>
        <time>2012-09-22T09:12:27Z</time>
      </trkpt>
      <trkpt lat="43.80401" lon="6.9668">
        <ele>1144.1062012</ele>
        <time>2012-09-22T09:13:09Z</time>
      </trkpt>
      <trkpt lat="43.8039" lon="6.96494">
        <ele>1149.3935547</ele>
        <time>2012-09-22T09:14:03Z</time>
      </trkpt>
      <trkpt lat="43.80365" lon="6.9636">
        <ele>1149.3935547</ele>
        <time>2012-09-22T09:14:47Z</time>
      </trkpt>
      <trkpt lat="43.80377" lon="6.96248">
        <ele>1148.4321289</ele>
        <time>2012-09-22T09:20:12Z</time>
      </trkpt>
      <trkpt lat="43.80392" lon="6.96122">
        <ele>1142.6643066</ele>
        <time>2012-09-22T09:20:43Z</time>
      </trkpt>
      <trkpt lat="43.80386" lon="6.95991">
        <ele>1130.1669922</ele>
        <time>2012-09-22T09:21:19Z</time>
      </trkpt>
      <trkpt lat="43.80366" lon="6.95919">
        <ele>1122.4765625</ele>
        <time>2012-09-22T09:21:48Z</time>
      </trkpt>
      <trkpt lat="43.80327" lon="6.95838">
        <ele>1110.9406738</ele>
        <time>2012-09-22T09:22:05Z</time>
      </trkpt>
      <trkpt lat="43.80331" lon="6.95703">
        <ele>1102.2888184</ele>
        <time>2012-09-22T09:22:37Z</time>
      </trkpt>
      <trkpt lat="43.80315" lon="6.95674">
        <ele>1123.4379883</ele>
        <time>2012-09-22T09:24:18Z</time>
      </trkpt>
      <trkpt lat="43.80334" lon="6.95569">
        <ele>1124.8798828</ele>
        <time>2012-09-22T09:24:36Z</time>
      </trkpt>
      <trkpt lat="43.80322" lon="6.95516">
        <ele>1129.2055664</ele>
        <time>2012-09-22T09:25:00Z</time>
      </trkpt>
      <trkpt lat="43.80326" lon="6.95448">
        <ele>1128.7250977</ele>
        <time>2012-09-22T09:25:24Z</time>
      </trkpt>
      <trkpt lat="43.80311" lon="6.95397">
        <ele>1129.2055664</ele>
        <time>2012-09-22T09:25:39Z</time>
      </trkpt>
      <trkpt lat="43.80309" lon="6.95336">
        <ele>1122.4765625</ele>
        <time>2012-09-22T09:25:59Z</time>
      </trkpt>
      <trkpt lat="43.8031" lon="6.95332">
        <ele>1121.9958496</ele>
        <time>2012-09-22T09:26:01Z</time>
      </trkpt>
      <trkpt lat="43.80306" lon="6.953">
        <ele>1117.6699219</ele>
        <time>2012-09-22T09:26:12Z</time>
      </trkpt>
      <trkpt lat="43.80253" lon="6.95211">
        <ele>1116.7087402</ele>
        <time>2012-09-22T09:26:32Z</time>
      </trkpt>
      <trkpt lat="43.80268" lon="6.95168">
        <ele>1120.5539551</ele>
        <time>2012-09-22T09:26:52Z</time>
      </trkpt>
      <trkpt lat="43.80304" lon="6.95133">
        <ele>1121.9958496</ele>
        <time>2012-09-22T09:27:12Z</time>
      </trkpt>
      <trkpt lat="43.80324" lon="6.95093">
        <ele>1122.4765625</ele>
        <time>2012-09-22T09:27:27Z</time>
      </trkpt>
      <trkpt lat="43.80318" lon="6.95002">
        <ele>1121.5151367</ele>
        <time>2012-09-22T09:28:14Z</time>
      </trkpt>
      <trkpt lat="43.80316" lon="6.94968">
        <ele>1118.1506348</ele>
        <time>2012-09-22T09:28:24Z</time>
      </trkpt>
      <trkpt lat="43.80272" lon="6.9483">
        <ele>1100.8469238</ele>
        <time>2012-09-22T09:29:10Z</time>
      </trkpt>
      <trkpt lat="43.8027" lon="6.94818">
        <ele>1109.979248</ele>
        <time>2012-09-22T09:30:12Z</time>
      </trkpt>
      <trkpt lat="43.8026" lon="6.94722">
        <ele>1119.1120605</ele>
        <time>2012-09-22T09:31:54Z</time>
      </trkpt>
      <trkpt lat="43.80252" lon="6.94606">
        <ele>1118.6313477</ele>
        <time>2012-09-22T09:32:17Z</time>
      </trkpt>
      <trkpt lat="43.80258" lon="6.9459">
        <ele>1139.7802734</ele>
        <time>2012-09-22T09:34:56Z</time>
      </trkpt>
      <trkpt lat="43.80277" lon="6.94468">
        <ele>1141.7028809</ele>
        <time>2012-09-22T09:35:24Z</time>
      </trkpt>
      <trkpt lat="43.80277" lon="6.94468">
        <ele>1172.4650879</ele>
        <time>2012-09-22T09:39:15Z</time>
      </trkpt>
      <trkpt lat="43.80311" lon="6.94353">
        <ele>1210.9177246</ele>
        <time>2012-09-22T09:44:14Z</time>
      </trkpt>
      <trkpt lat="43.80371" lon="6.94259">
        <ele>1213.8017578</ele>
        <time>2012-09-22T09:44:38Z</time>
      </trkpt>
      <trkpt lat="43.80371" lon="6.94259">
        <ele>1231.1057129</ele>
        <time>2012-09-22T09:47:25Z</time>
      </trkpt>
      <trkpt lat="43.8041" lon="6.94372">
        <ele>1233.5087891</ele>
        <time>2012-09-22T09:47:46Z</time>
      </trkpt>
      <trkpt lat="43.8041" lon="6.94372">
        <ele>1256.0996094</ele>
        <time>2012-09-22T09:51:05Z</time>
      </trkpt>
      <trkpt lat="43.80504" lon="6.94369">
        <ele>1258.5029297</ele>
        <time>2012-09-22T09:51:28Z</time>
      </trkpt>
      <trkpt lat="43.80504" lon="6.94369">
        <ele>1283.4973145</ele>
        <time>2012-09-22T09:54:51Z</time>
      </trkpt>
      <trkpt lat="43.8057" lon="6.94284">
        <ele>1286.3813477</ele>
        <time>2012-09-22T09:55:12Z</time>
      </trkpt>
      <trkpt lat="43.8057" lon="6.94284">
        <ele>1318.1047363</ele>
        <time>2012-09-22T09:59:34Z</time>
      </trkpt>
      <trkpt lat="43.80656" lon="6.94244">
        <ele>1356.5576172</ele>
        <time>2012-09-22T10:04:40Z</time>
      </trkpt>
      <trkpt lat="43.80743" lon="6.94262">
        <ele>1369.0546875</ele>
        <time>2012-09-22T10:09:55Z</time>
      </trkpt>
      <trkpt lat="43.8084" lon="6.9422">
        <ele>1369.5354004</ele>
        <time>2012-09-22T10:10:12Z</time>
      </trkpt>
      <trkpt lat="43.80854" lon="6.94224">
        <ele>1367.6125488</ele>
        <time>2012-09-22T10:10:22Z</time>
      </trkpt>
      <trkpt lat="43.80875" lon="6.94214">
        <ele>1366.1706543</ele>
        <time>2012-09-22T10:10:36Z</time>
      </trkpt>
      <trkpt lat="43.8088" lon="6.94197">
        <ele>1366.6513672</ele>
        <time>2012-09-22T10:10:55Z</time>
      </trkpt>
      <trkpt lat="43.8088" lon="6.9421">
        <ele>1366.6513672</ele>
        <time>2012-09-22T10:11:14Z</time>
      </trkpt>
      <trkpt lat="43.80894" lon="6.94145">
        <ele>1369.5354004</ele>
        <time>2012-09-22T10:12:26Z</time>
      </trkpt>
      <trkpt lat="43.80979" lon="6.9415">
        <ele>1378.6679688</ele>
        <time>2012-09-22T10:13:49Z</time>
      </trkpt>
      <trkpt lat="43.81142" lon="6.94094">
        <ele>1382.9936523</ele>
        <time>2012-09-22T10:15:33Z</time>
      </trkpt>
      <trkpt lat="43.81199" lon="6.94103">
        <ele>1389.7231445</ele>
        <time>2012-09-22T10:16:33Z</time>
      </trkpt>
      <trkpt lat="43.81231" lon="6.94208">
        <ele>1399.3361816</ele>
        <time>2012-09-22T10:18:02Z</time>
      </trkpt>
      <trkpt lat="43.81275" lon="6.94234">
        <ele>1404.6235352</ele>
        <time>2012-09-22T10:18:57Z</time>
      </trkpt>
      <trkpt lat="43.81358" lon="6.94221">
        <ele>1409.9106445</ele>
        <time>2012-09-22T10:20:03Z</time>
      </trkpt>
      <trkpt lat="43.81385" lon="6.94234">
        <ele>1417.1206055</ele>
        <time>2012-09-22T10:20:51Z</time>
      </trkpt>
      <trkpt lat="43.81403" lon="6.94234">
        <ele>1421.4465332</ele>
        <time>2012-09-22T10:21:26Z</time>
      </trkpt>
      <trkpt lat="43.81403" lon="6.94247">
        <ele>1422.8886719</ele>
        <time>2012-09-22T10:21:42Z</time>
      </trkpt>
      <trkpt lat="43.81429" lon="6.94333">
        <ele>1422.8886719</ele>
        <time>2012-09-22T10:22:29Z</time>
      </trkpt>
      <trkpt lat="43.8152" lon="6.9439">
        <ele>1430.5791016</ele>
        <time>2012-09-22T10:24:18Z</time>
      </trkpt>
      <trkpt lat="43.81544" lon="6.94435">
        <ele>1434.9050293</ele>
        <time>2012-09-22T10:24:57Z</time>
      </trkpt>
      <trkpt lat="43.81586" lon="6.94437">
        <ele>1440.1923828</ele>
        <time>2012-09-22T10:25:41Z</time>
      </trkpt>
      <trkpt lat="43.81664" lon="6.94492">
        <ele>1457.0153809</ele>
        <time>2012-09-22T10:28:01Z</time>
      </trkpt>
      <trkpt lat="43.81727" lon="6.94467">
        <ele>1470.473877</ele>
        <time>2012-09-22T10:29:42Z</time>
      </trkpt>
      <trkpt lat="43.81742" lon="6.94493">
        <ele>1479.6062012</ele>
        <time>2012-09-22T10:30:53Z</time>
      </trkpt>
      <trkpt lat="43.81779" lon="6.94494">
        <ele>1485.8549805</ele>
        <time>2012-09-22T10:31:49Z</time>
      </trkpt>
      <trkpt lat="43.81776" lon="6.9451">
        <ele>1487.7775879</ele>
        <time>2012-09-22T10:32:10Z</time>
      </trkpt>
      <trkpt lat="43.81792" lon="6.94533">
        <ele>1487.296875</ele>
        <time>2012-09-22T10:32:29Z</time>
      </trkpt>
      <trkpt lat="43.81874" lon="6.94559">
        <ele>1504.1201172</ele>
        <time>2012-09-22T10:34:56Z</time>
      </trkpt>
      <trkpt lat="43.81877" lon="6.94566">
        <ele>1504.6005859</ele>
        <time>2012-09-22T10:35:21Z</time>
      </trkpt>
      <trkpt lat="43.81898" lon="6.94633">
        <ele>1494.5065918</ele>
        <time>2012-09-22T10:36:42Z</time>
      </trkpt>
      <trkpt lat="43.81922" lon="6.94652">
        <ele>1492.1035156</ele>
        <time>2012-09-22T10:37:18Z</time>
      </trkpt>
      <trkpt lat="43.82202" lon="6.94697">
        <ele>1491.6228027</ele>
        <time>2012-09-22T10:39:22Z</time>
      </trkpt>
      <trkpt lat="43.82248" lon="6.94669">
        <ele>1488.2583008</ele>
        <time>2012-09-22T10:39:41Z</time>
      </trkpt>
      <trkpt lat="43.82217" lon="6.94683">
        <ele>1487.296875</ele>
        <time>2012-09-22T10:40:12Z</time>
      </trkpt>
      <trkpt lat="43.82258" lon="6.94774">
        <ele>1489.2194824</ele>
        <time>2012-09-22T10:40:39Z</time>
      </trkpt>
      <trkpt lat="43.82259" lon="6.94775">
        <ele>1489.2194824</ele>
        <time>2012-09-22T10:40:48Z</time>
      </trkpt>
      <trkpt lat="43.82222" lon="6.94726">
        <ele>1486.8161621</ele>
        <time>2012-09-22T10:41:02Z</time>
      </trkpt>
      <trkpt lat="43.82219" lon="6.94681">
        <ele>1488.2583008</ele>
        <time>2012-09-22T10:41:13Z</time>
      </trkpt>
      <trkpt lat="43.82352" lon="6.94657">
        <ele>1484.4130859</ele>
        <time>2012-09-22T10:42:31Z</time>
      </trkpt>
      <trkpt lat="43.82478" lon="6.9457">
        <ele>1459.8991699</ele>
        <time>2012-09-22T10:43:37Z</time>
      </trkpt>
      <trkpt lat="43.82601" lon="6.94576">
        <ele>1455.5734863</ele>
        <time>2012-09-22T10:44:31Z</time>
      </trkpt>
      <trkpt lat="43.82624" lon="6.9455">
        <ele>1453.170166</ele>
        <time>2012-09-22T10:44:43Z</time>
      </trkpt>
      <trkpt lat="43.8266" lon="6.94552">
        <ele>1450.2861328</ele>
        <time>2012-09-22T10:44:55Z</time>
      </trkpt>
      <trkpt lat="43.82769" lon="6.94587">
        <ele>1442.1149902</ele>
        <time>2012-09-22T10:45:23Z</time>
      </trkpt>
      <trkpt lat="43.8284" lon="6.94603">
        <ele>1434.4243164</ele>
        <time>2012-09-22T10:45:41Z</time>
      </trkpt>
      <trkpt lat="43.82953" lon="6.94574">
        <ele>1427.6950684</ele>
        <time>2012-09-22T10:46:16Z</time>
      </trkpt>
      <trkpt lat="43.82948" lon="6.94594">
        <ele>1426.2531738</ele>
        <time>2012-09-22T10:46:21Z</time>
      </trkpt>
      <trkpt lat="43.82819" lon="6.94712">
        <ele>1419.5239258</ele>
        <time>2012-09-22T10:46:43Z</time>
      </trkpt>
      <trkpt lat="43.82797" lon="6.94734">
        <ele>1418.0817871</ele>
        <time>2012-09-22T10:46:46Z</time>
      </trkpt>
      <trkpt lat="43.82777" lon="6.94791">
        <ele>1415.197998</ele>
        <time>2012-09-22T10:46:51Z</time>
      </trkpt>
      <trkpt lat="43.82797" lon="6.94824">
        <ele>1413.2753906</ele>
        <time>2012-09-22T10:46:54Z</time>
      </trkpt>
      <trkpt lat="43.82835" lon="6.94821">
        <ele>1410.8720703</ele>
        <time>2012-09-22T10:46:58Z</time>
      </trkpt>
      <trkpt lat="43.82874" lon="6.94784">
        <ele>1407.5075684</ele>
        <time>2012-09-22T10:47:03Z</time>
      </trkpt>
      <trkpt lat="43.82938" lon="6.94765">
        <ele>1404.6235352</ele>
        <time>2012-09-22T10:47:10Z</time>
      </trkpt>
      <trkpt lat="43.83052" lon="6.94818">
        <ele>1403.6621094</ele>
        <time>2012-09-22T10:47:25Z</time>
      </trkpt>
      <trkpt lat="43.83139" lon="6.94947">
        <ele>1404.6235352</ele>
        <time>2012-09-22T10:47:43Z</time>
      </trkpt>
      <trkpt lat="43.83188" lon="6.95105">
        <ele>1406.5461426</ele>
        <time>2012-09-22T10:48:02Z</time>
      </trkpt>
      <trkpt lat="43.83199" lon="6.95248">
        <ele>1409.9106445</ele>
        <time>2012-09-22T10:48:23Z</time>
      </trkpt>
      <trkpt lat="43.83188" lon="6.95379">
        <ele>1410.3913574</ele>
        <time>2012-09-22T10:48:42Z</time>
      </trkpt>
      <trkpt lat="43.8312" lon="6.95502">
        <ele>1410.8720703</ele>
        <time>2012-09-22T10:49:03Z</time>
      </trkpt>
      <trkpt lat="43.8305" lon="6.95599">
        <ele>1410.8720703</ele>
        <time>2012-09-22T10:49:20Z</time>
      </trkpt>
      <trkpt lat="43.83011" lon="6.95712">
        <ele>1409.4301758</ele>
        <time>2012-09-22T10:49:35Z</time>
      </trkpt>
      <trkpt lat="43.8301" lon="6.9576">
        <ele>1407.9882813</ele>
        <time>2012-09-22T10:49:41Z</time>
      </trkpt>
      <trkpt lat="43.83035" lon="6.95846">
        <ele>1402.2199707</ele>
        <time>2012-09-22T10:49:56Z</time>
      </trkpt>
      <trkpt lat="43.83017" lon="6.95891">
        <ele>1399.8168945</ele>
        <time>2012-09-22T10:50:03Z</time>
      </trkpt>
      <trkpt lat="43.8305" lon="6.95878">
        <ele>1398.8554688</ele>
        <time>2012-09-22T10:50:06Z</time>
      </trkpt>
      <trkpt lat="43.83083" lon="6.95913">
        <ele>1396.4523926</ele>
        <time>2012-09-22T10:50:16Z</time>
      </trkpt>
      <trkpt lat="43.83116" lon="6.95992">
        <ele>1395.0102539</ele>
        <time>2012-09-22T10:50:23Z</time>
      </trkpt>
      <trkpt lat="43.83081" lon="6.95973">
        <ele>1394.529541</ele>
        <time>2012-09-22T10:50:26Z</time>
      </trkpt>
      <trkpt lat="43.83108" lon="6.96">
        <ele>1393.5683594</ele>
        <time>2012-09-22T10:50:28Z</time>
      </trkpt>
      <trkpt lat="43.83106" lon="6.96257">
        <ele>1387.800293</ele>
        <time>2012-09-22T10:51:04Z</time>
      </trkpt>
      <trkpt lat="43.83081" lon="6.96368">
        <ele>1389.7231445</ele>
        <time>2012-09-22T10:51:18Z</time>
      </trkpt>
      <trkpt lat="43.8297" lon="6.96657">
        <ele>1402.2199707</ele>
        <time>2012-09-22T10:52:26Z</time>
      </trkpt>
      <trkpt lat="43.83016" lon="6.97159">
        <ele>1402.2199707</ele>
        <time>2012-09-22T11:03:39Z</time>
      </trkpt>
      <trkpt lat="43.83014" lon="6.97211">
        <ele>1404.1430664</ele>
        <time>2012-09-22T11:03:51Z</time>
      </trkpt>
      <trkpt lat="43.82964" lon="6.9727">
        <ele>1409.4301758</ele>
        <time>2012-09-22T11:04:22Z</time>
      </trkpt>
      <trkpt lat="43.82955" lon="6.97331">
        <ele>1414.2365723</ele>
        <time>2012-09-22T11:04:46Z</time>
      </trkpt>
      <trkpt lat="43.8297" lon="6.9738">
        <ele>1416.6398926</ele>
        <time>2012-09-22T11:05:05Z</time>
      </trkpt>
      <trkpt lat="43.83021" lon="6.97402">
        <ele>1419.5239258</ele>
        <time>2012-09-22T11:05:29Z</time>
      </trkpt>
      <trkpt lat="43.83111" lon="6.97354">
        <ele>1428.1757813</ele>
        <time>2012-09-22T11:06:23Z</time>
      </trkpt>
      <trkpt lat="43.83102" lon="6.97374">
        <ele>1430.5791016</ele>
        <time>2012-09-22T11:06:35Z</time>
      </trkpt>
      <trkpt lat="43.83077" lon="6.9741">
        <ele>1431.0598145</ele>
        <time>2012-09-22T11:06:51Z</time>
      </trkpt>
      <trkpt lat="43.83051" lon="6.97438">
        <ele>1430.0983887</ele>
        <time>2012-09-22T11:07:02Z</time>
      </trkpt>
      <trkpt lat="43.83012" lon="6.9746">
        <ele>1429.6176758</ele>
        <time>2012-09-22T11:07:15Z</time>
      </trkpt>
      <trkpt lat="43.82965" lon="6.97452">
        <ele>1430.5791016</ele>
        <time>2012-09-22T11:07:34Z</time>
      </trkpt>
      <trkpt lat="43.82903" lon="6.974">
        <ele>1433.4628906</ele>
        <time>2012-09-22T11:08:05Z</time>
      </trkpt>
      <trkpt lat="43.82881" lon="6.97427">
        <ele>1436.8276367</ele>
        <time>2012-09-22T11:08:25Z</time>
      </trkpt>
      <trkpt lat="43.82873" lon="6.97456">
        <ele>1439.230957</ele>
        <time>2012-09-22T11:08:38Z</time>
      </trkpt>
      <trkpt lat="43.82899" lon="6.97473">
        <ele>1441.6342773</ele>
        <time>2012-09-22T11:08:57Z</time>
      </trkpt>
      <trkpt lat="43.82945" lon="6.97516">
        <ele>1443.0761719</ele>
        <time>2012-09-22T11:09:27Z</time>
      </trkpt>
      <trkpt lat="43.82971" lon="6.97565">
        <ele>1447.4020996</ele>
        <time>2012-09-22T11:09:52Z</time>
      </trkpt>
      <trkpt lat="43.8295" lon="6.97583">
        <ele>1450.7666016</ele>
        <time>2012-09-22T11:10:16Z</time>
      </trkpt>
      <trkpt lat="43.82936" lon="6.97566">
        <ele>1451.7280273</ele>
        <time>2012-09-22T11:10:29Z</time>
      </trkpt>
      <trkpt lat="43.82911" lon="6.97539">
        <ele>1452.6894531</ele>
        <time>2012-09-22T11:10:48Z</time>
      </trkpt>
      <trkpt lat="43.82889" lon="6.97546">
        <ele>1454.6120605</ele>
        <time>2012-09-22T11:11:02Z</time>
      </trkpt>
      <trkpt lat="43.82885" lon="6.97584">
        <ele>1457.4960938</ele>
        <time>2012-09-22T11:11:20Z</time>
      </trkpt>
      <trkpt lat="43.82912" lon="6.97636">
        <ele>1458.4572754</ele>
        <time>2012-09-22T11:11:45Z</time>
      </trkpt>
      <trkpt lat="43.82858" lon="6.9774">
        <ele>1464.2250977</ele>
        <time>2012-09-22T11:12:49Z</time>
      </trkpt>
      <trkpt lat="43.82863" lon="6.97791">
        <ele>1469.5126953</ele>
        <time>2012-09-22T11:13:13Z</time>
      </trkpt>
      <trkpt lat="43.82857" lon="6.97848">
        <ele>1472.8771973</ele>
        <time>2012-09-22T11:13:41Z</time>
      </trkpt>
      <trkpt lat="43.8281" lon="6.9789">
        <ele>1477.203125</ele>
        <time>2012-09-22T11:14:17Z</time>
      </trkpt>
      <trkpt lat="43.82771" lon="6.97971">
        <ele>1484.4130859</ele>
        <time>2012-09-22T11:14:58Z</time>
      </trkpt>
      <trkpt lat="43.82744" lon="6.98072">
        <ele>1487.296875</ele>
        <time>2012-09-22T11:15:49Z</time>
      </trkpt>
      <trkpt lat="43.82717" lon="6.98106">
        <ele>1486.8161621</ele>
        <time>2012-09-22T11:16:02Z</time>
      </trkpt>
      <trkpt lat="43.82671" lon="6.98138">
        <ele>1488.2583008</ele>
        <time>2012-09-22T11:16:23Z</time>
      </trkpt>
      <trkpt lat="43.82588" lon="6.98154">
        <ele>1511.329834</ele>
        <time>2012-09-22T11:18:50Z</time>
      </trkpt>
      <trkpt lat="43.8246" lon="6.9821">
        <ele>1517.5783691</ele>
        <time>2012-09-22T11:19:32Z</time>
      </trkpt>
      <trkpt lat="43.8243" lon="6.9831">
        <ele>1523.8269043</ele>
        <time>2012-09-22T11:20:28Z</time>
      </trkpt>
      <trkpt lat="43.8241" lon="6.98338">
        <ele>1525.7495117</ele>
        <time>2012-09-22T11:20:47Z</time>
      </trkpt>
      <trkpt lat="43.82401" lon="6.98379">
        <ele>1529.1140137</ele>
        <time>2012-09-22T11:21:06Z</time>
      </trkpt>
      <trkpt lat="43.8238" lon="6.98548">
        <ele>1531.517334</ele>
        <time>2012-09-22T11:21:55Z</time>
      </trkpt>
      <trkpt lat="43.82374" lon="6.98624">
        <ele>1533.4401855</ele>
        <time>2012-09-22T11:22:18Z</time>
      </trkpt>
      <trkpt lat="43.82397" lon="6.98796">
        <ele>1535.362793</ele>
        <time>2012-09-22T11:23:04Z</time>
      </trkpt>
      <trkpt lat="43.82393" lon="6.98903">
        <ele>1539.2080078</ele>
        <time>2012-09-22T11:23:38Z</time>
      </trkpt>
      <trkpt lat="43.82329" lon="6.9911">
        <ele>1549.302002</ele>
        <time>2012-09-22T11:25:03Z</time>
      </trkpt>
      <trkpt lat="43.82294" lon="6.99168">
        <ele>1543.5339355</ele>
        <time>2012-09-22T11:25:24Z</time>
      </trkpt>
      <trkpt lat="43.82357" lon="6.99302">
        <ele>1546.8984375</ele>
        <time>2012-09-22T11:26:10Z</time>
      </trkpt>
      <trkpt lat="43.82388" lon="6.99534">
        <ele>1555.5505371</ele>
        <time>2012-09-22T11:27:30Z</time>
      </trkpt>
      <trkpt lat="43.82387" lon="6.99598">
        <ele>1556.0310059</ele>
        <time>2012-09-22T11:27:50Z</time>
      </trkpt>
      <trkpt lat="43.8237" lon="6.99663">
        <ele>1559.8762207</ele>
        <time>2012-09-22T11:28:14Z</time>
      </trkpt>
      <trkpt lat="43.82335" lon="6.99686">
        <ele>1561.7990723</ele>
        <time>2012-09-22T11:28:35Z</time>
      </trkpt>
      <trkpt lat="43.82304" lon="6.99702">
        <ele>1561.7990723</ele>
        <time>2012-09-22T11:28:51Z</time>
      </trkpt>
      <trkpt lat="43.82282" lon="6.99737">
        <ele>1563.2409668</ele>
        <time>2012-09-22T11:29:08Z</time>
      </trkpt>
      <trkpt lat="43.82254" lon="6.99845">
        <ele>1575.2573242</ele>
        <time>2012-09-22T11:30:06Z</time>
      </trkpt>
      <trkpt lat="43.82204" lon="6.99883">
        <ele>1584.8708496</ele>
        <time>2012-09-22T11:31:40Z</time>
      </trkpt>
      <trkpt lat="43.82154" lon="6.99924">
        <ele>1582.4675293</ele>
        <time>2012-09-22T11:33:03Z</time>
      </trkpt>
      <trkpt lat="43.82135" lon="6.99984">
        <ele>1579.1025391</ele>
        <time>2012-09-22T11:33:12Z</time>
      </trkpt>
      <trkpt lat="43.82122" lon="7.00096">
        <ele>1569.0090332</ele>
        <time>2012-09-22T11:33:32Z</time>
      </trkpt>
      <trkpt lat="43.82076" lon="7.00182">
        <ele>1566.125</ele>
        <time>2012-09-22T11:34:18Z</time>
      </trkpt>
      <trkpt lat="43.82125" lon="7.00368">
        <ele>1541.6113281</ele>
        <time>2012-09-22T11:34:56Z</time>
      </trkpt>
      <trkpt lat="43.82101" lon="7.00398">
        <ele>1538.7275391</ele>
        <time>2012-09-22T11:34:58Z</time>
      </trkpt>
      <trkpt lat="43.82114" lon="7.00424">
        <ele>1535.8435059</ele>
        <time>2012-09-22T11:35:03Z</time>
      </trkpt>
      <trkpt lat="43.8214" lon="7.00661">
        <ele>1498.3518066</ele>
        <time>2012-09-22T11:35:43Z</time>
      </trkpt>
      <trkpt lat="43.82112" lon="7.00692">
        <ele>1490.661377</ele>
        <time>2012-09-22T11:35:57Z</time>
      </trkpt>
      <trkpt lat="43.82101" lon="7.0069">
        <ele>1488.7390137</ele>
        <time>2012-09-22T11:35:59Z</time>
      </trkpt>
      <trkpt lat="43.82003" lon="7.00623">
        <ele>1473.8383789</ele>
        <time>2012-09-22T11:36:20Z</time>
      </trkpt>
      <trkpt lat="43.81991" lon="7.00632">
        <ele>1472.3964844</ele>
        <time>2012-09-22T11:36:23Z</time>
      </trkpt>
      <trkpt lat="43.81979" lon="7.00657">
        <ele>1469.9931641</ele>
        <time>2012-09-22T11:36:28Z</time>
      </trkpt>
      <trkpt lat="43.82003" lon="7.00833">
        <ele>1460.8605957</ele>
        <time>2012-09-22T11:36:50Z</time>
      </trkpt>
      <trkpt lat="43.81996" lon="7.00904">
        <ele>1454.1315918</ele>
        <time>2012-09-22T11:37:02Z</time>
      </trkpt>
      <trkpt lat="43.81999" lon="7.00933">
        <ele>1448.8439941</ele>
        <time>2012-09-22T11:37:10Z</time>
      </trkpt>
      <trkpt lat="43.81991" lon="7.0094">
        <ele>1445.4794922</ele>
        <time>2012-09-22T11:37:39Z</time>
      </trkpt>
      <trkpt lat="43.82031" lon="7.01036">
        <ele>1439.230957</ele>
        <time>2012-09-22T11:38:23Z</time>
      </trkpt>
      <trkpt lat="43.81843" lon="7.01297">
        <ele>1437.7890625</ele>
        <time>2012-09-22T11:39:51Z</time>
      </trkpt>
      <trkpt lat="43.81776" lon="7.01312">
        <ele>1439.7116699</ele>
        <time>2012-09-22T11:40:09Z</time>
      </trkpt>
      <trkpt lat="43.8177" lon="7.01357">
        <ele>1441.1535645</ele>
        <time>2012-09-22T11:40:23Z</time>
      </trkpt>
      <trkpt lat="43.81722" lon="7.01426">
        <ele>1446.9213867</ele>
        <time>2012-09-22T11:40:56Z</time>
      </trkpt>
      <trkpt lat="43.81653" lon="7.01499">
        <ele>1452.2087402</ele>
        <time>2012-09-22T11:41:54Z</time>
      </trkpt>
      <trkpt lat="43.81597" lon="7.01534">
        <ele>1456.0539551</ele>
        <time>2012-09-22T11:42:48Z</time>
      </trkpt>
      <trkpt lat="43.81591" lon="7.01537">
        <ele>1456.0539551</ele>
        <time>2012-09-22T11:43:16Z</time>
      </trkpt>
      <trkpt lat="43.81486" lon="7.01539">
        <ele>1444.9987793</ele>
        <time>2012-09-22T11:44:16Z</time>
      </trkpt>
      <trkpt lat="43.813" lon="7.01607">
        <ele>1437.7890625</ele>
        <time>2012-09-22T11:45:15Z</time>
      </trkpt>
      <trkpt lat="43.81239" lon="7.01661">
        <ele>1436.347168</ele>
        <time>2012-09-22T11:45:46Z</time>
      </trkpt>
      <trkpt lat="43.81223" lon="7.01782">
        <ele>1439.230957</ele>
        <time>2012-09-22T11:46:29Z</time>
      </trkpt>
      <trkpt lat="43.81212" lon="7.01817">
        <ele>1436.8276367</ele>
        <time>2012-09-22T11:46:43Z</time>
      </trkpt>
      <trkpt lat="43.81162" lon="7.01912">
        <ele>1430.5791016</ele>
        <time>2012-09-22T11:47:22Z</time>
      </trkpt>
      <trkpt lat="43.81145" lon="7.01967">
        <ele>1427.2145996</ele>
        <time>2012-09-22T11:47:37Z</time>
      </trkpt>
      <trkpt lat="43.81113" lon="7.02011">
        <ele>1425.7724609</ele>
        <time>2012-09-22T11:47:55Z</time>
      </trkpt>
      <trkpt lat="43.8105" lon="7.02286">
        <ele>1430.0983887</ele>
        <time>2012-09-22T11:49:20Z</time>
      </trkpt>
      <trkpt lat="43.81039" lon="7.02411">
        <ele>1435.385498</ele>
        <time>2012-09-22T11:50:03Z</time>
      </trkpt>
      <trkpt lat="43.80983" lon="7.02485">
        <ele>1437.7890625</ele>
        <time>2012-09-22T11:50:40Z</time>
      </trkpt>
      <trkpt lat="43.80819" lon="7.02874">
        <ele>1451.7280273</ele>
        <time>2012-09-22T11:53:31Z</time>
      </trkpt>
      <trkpt lat="43.80798" lon="7.02898">
        <ele>1450.7666016</ele>
        <time>2012-09-22T11:53:53Z</time>
      </trkpt>
      <trkpt lat="43.80772" lon="7.02956">
        <ele>1446.9213867</ele>
        <time>2012-09-22T11:54:06Z</time>
      </trkpt>
      <trkpt lat="43.80749" lon="7.02994">
        <ele>1440.1923828</ele>
        <time>2012-09-22T11:54:20Z</time>
      </trkpt>
      <trkpt lat="43.80727" lon="7.02984">
        <ele>1436.347168</ele>
        <time>2012-09-22T11:54:30Z</time>
      </trkpt>
      <trkpt lat="43.80673" lon="7.03014">
        <ele>1426.2531738</ele>
        <time>2012-09-22T11:54:57Z</time>
      </trkpt>
      <trkpt lat="43.8063" lon="7.03066">
        <ele>1421.9272461</ele>
        <time>2012-09-22T11:56:36Z</time>
      </trkpt>
      <trkpt lat="43.80609" lon="7.03117">
        <ele>1420.9660645</ele>
        <time>2012-09-22T11:56:56Z</time>
      </trkpt>
      <trkpt lat="43.80592" lon="7.03141">
        <ele>1419.0432129</ele>
        <time>2012-09-22T11:57:12Z</time>
      </trkpt>
      <trkpt lat="43.80541" lon="7.03232">
        <ele>1403.6621094</ele>
        <time>2012-09-22T11:57:42Z</time>
      </trkpt>
      <trkpt lat="43.8048" lon="7.03282">
        <ele>1394.0490723</ele>
        <time>2012-09-22T11:58:02Z</time>
      </trkpt>
      <trkpt lat="43.8052" lon="7.03198">
        <ele>1385.3969727</ele>
        <time>2012-09-22T11:58:22Z</time>
      </trkpt>
      <trkpt lat="43.80524" lon="7.03142">
        <ele>1381.0712891</ele>
        <time>2012-09-22T11:58:33Z</time>
      </trkpt>
      <trkpt lat="43.80524" lon="7.03131">
        <ele>1379.6291504</ele>
        <time>2012-09-22T11:58:37Z</time>
      </trkpt>
      <trkpt lat="43.8047" lon="7.03209">
        <ele>1363.767334</ele>
        <time>2012-09-22T11:59:15Z</time>
      </trkpt>
      <trkpt lat="43.80481" lon="7.03123">
        <ele>1348.8669434</ele>
        <time>2012-09-22T12:02:44Z</time>
      </trkpt>
      <trkpt lat="43.8042" lon="7.0319">
        <ele>1333.005127</ele>
        <time>2012-09-22T12:03:32Z</time>
      </trkpt>
      <trkpt lat="43.80431" lon="7.03154">
        <ele>1325.7954102</ele>
        <time>2012-09-22T12:03:47Z</time>
      </trkpt>
      <trkpt lat="43.80406" lon="7.03167">
        <ele>1319.0661621</ele>
        <time>2012-09-22T12:04:05Z</time>
      </trkpt>
      <trkpt lat="43.80431" lon="7.03112">
        <ele>1311.8564453</ele>
        <time>2012-09-22T12:04:24Z</time>
      </trkpt>
      <trkpt lat="43.80398" lon="7.0312">
        <ele>1303.6850586</ele>
        <time>2012-09-22T12:04:54Z</time>
      </trkpt>
      <trkpt lat="43.80455" lon="7.02979">
        <ele>1285.4199219</ele>
        <time>2012-09-22T12:05:40Z</time>
      </trkpt>
      <trkpt lat="43.80399" lon="7.03023">
        <ele>1271.4807129</ele>
        <time>2012-09-22T12:06:12Z</time>
      </trkpt>
      <trkpt lat="43.80421" lon="7.02947">
        <ele>1260.9064941</ele>
        <time>2012-09-22T12:06:40Z</time>
      </trkpt>
      <trkpt lat="43.8041" lon="7.02952">
        <ele>1256.5803223</ele>
        <time>2012-09-22T12:07:12Z</time>
      </trkpt>
      <trkpt lat="43.80415" lon="7.02882">
        <ele>1247.9287109</ele>
        <time>2012-09-22T12:07:33Z</time>
      </trkpt>
      <trkpt lat="43.80393" lon="7.02916">
        <ele>1240.7185059</ele>
        <time>2012-09-22T12:07:50Z</time>
      </trkpt>
      <trkpt lat="43.80391" lon="7.02872">
        <ele>1234.4702148</ele>
        <time>2012-09-22T12:08:06Z</time>
      </trkpt>
      <trkpt lat="43.80353" lon="7.0294">
        <ele>1225.3374023</ele>
        <time>2012-09-22T12:08:26Z</time>
      </trkpt>
      <trkpt lat="43.80348" lon="7.02938">
        <ele>1223.4150391</ele>
        <time>2012-09-22T12:08:30Z</time>
      </trkpt>
      <trkpt lat="43.80359" lon="7.02899">
        <ele>1218.1276855</ele>
        <time>2012-09-22T12:08:41Z</time>
      </trkpt>
      <trkpt lat="43.80349" lon="7.02902">
        <ele>1215.7246094</ele>
        <time>2012-09-22T12:08:51Z</time>
      </trkpt>
      <trkpt lat="43.80356" lon="7.02852">
        <ele>1208.0339355</ele>
        <time>2012-09-22T12:09:10Z</time>
      </trkpt>
      <trkpt lat="43.80336" lon="7.02861">
        <ele>1203.2272949</ele>
        <time>2012-09-22T12:09:22Z</time>
      </trkpt>
      <trkpt lat="43.8029" lon="7.02778">
        <ele>1187.3654785</ele>
        <time>2012-09-22T12:09:57Z</time>
      </trkpt>
      <trkpt lat="43.80269" lon="7.02779">
        <ele>1177.7521973</ele>
        <time>2012-09-22T12:10:25Z</time>
      </trkpt>
      <trkpt lat="43.80328" lon="7.02586">
        <ele>1193.6140137</ele>
        <time>2012-09-22T12:11:45Z</time>
      </trkpt>
      <trkpt lat="43.80307" lon="7.02334">
        <ele>1196.9787598</ele>
        <time>2012-09-22T12:12:58Z</time>
      </trkpt>
      <trkpt lat="43.80328" lon="7.02214">
        <ele>1203.2272949</ele>
        <time>2012-09-22T12:13:36Z</time>
      </trkpt>
      <trkpt lat="43.80328" lon="7.01999">
        <ele>1209.4758301</ele>
        <time>2012-09-22T12:14:39Z</time>
      </trkpt>
      <trkpt lat="43.80329" lon="7.01946">
        <ele>1209.4758301</ele>
        <time>2012-09-22T12:14:52Z</time>
      </trkpt>
      <trkpt lat="43.8031" lon="7.01828">
        <ele>1210.4370117</ele>
        <time>2012-09-22T12:15:19Z</time>
      </trkpt>
      <trkpt lat="43.80242" lon="7.0177">
        <ele>1211.8791504</ele>
        <time>2012-09-22T12:15:46Z</time>
      </trkpt>
      <trkpt lat="43.80245" lon="7.0171">
        <ele>1208.5144043</ele>
        <time>2012-09-22T12:15:58Z</time>
      </trkpt>
      <trkpt lat="43.80259" lon="7.01692">
        <ele>1207.0725098</ele>
        <time>2012-09-22T12:16:02Z</time>
      </trkpt>
      <trkpt lat="43.8029" lon="7.01614">
        <ele>1200.3435059</ele>
        <time>2012-09-22T12:16:14Z</time>
      </trkpt>
      <trkpt lat="43.8029" lon="7.01576">
        <ele>1196.9787598</ele>
        <time>2012-09-22T12:16:19Z</time>
      </trkpt>
      <trkpt lat="43.803" lon="7.01531">
        <ele>1190.2495117</ele>
        <time>2012-09-22T12:16:26Z</time>
      </trkpt>
      <trkpt lat="43.80304" lon="7.01525">
        <ele>1186.4042969</ele>
        <time>2012-09-22T12:16:27Z</time>
      </trkpt>
      <trkpt lat="43.80302" lon="7.01481">
        <ele>1184.9624023</ele>
        <time>2012-09-22T12:16:35Z</time>
      </trkpt>
      <trkpt lat="43.80286" lon="7.01492">
        <ele>1182.559082</ele>
        <time>2012-09-22T12:16:48Z</time>
      </trkpt>
      <trkpt lat="43.8027" lon="7.01404">
        <ele>1173.4265137</ele>
        <time>2012-09-22T12:17:03Z</time>
      </trkpt>
      <trkpt lat="43.8026" lon="7.01364">
        <ele>1166.6972656</ele>
        <time>2012-09-22T12:17:09Z</time>
      </trkpt>
      <trkpt lat="43.80285" lon="7.01275">
        <ele>1157.5646973</ele>
        <time>2012-09-22T12:17:24Z</time>
      </trkpt>
      <trkpt lat="43.80301" lon="7.01257">
        <ele>1154.6806641</ele>
        <time>2012-09-22T12:17:28Z</time>
      </trkpt>
      <trkpt lat="43.80305" lon="7.01241">
        <ele>1150.8354492</ele>
        <time>2012-09-22T12:17:32Z</time>
      </trkpt>
      <trkpt lat="43.80292" lon="7.01198">
        <ele>1147.951416</ele>
        <time>2012-09-22T12:17:42Z</time>
      </trkpt>
      <trkpt lat="43.80306" lon="7.01102">
        <ele>1129.6862793</ele>
        <time>2012-09-22T12:18:19Z</time>
      </trkpt>
      <trkpt lat="43.80248" lon="7.01069">
        <ele>1126.3217773</ele>
        <time>2012-09-22T12:18:24Z</time>
      </trkpt>
      <trkpt lat="43.80235" lon="7.01036">
        <ele>1124.3991699</ele>
        <time>2012-09-22T12:18:31Z</time>
      </trkpt>
      <trkpt lat="43.80224" lon="7.00997">
        <ele>1114.3051758</ele>
        <time>2012-09-22T12:18:58Z</time>
      </trkpt>
      <trkpt lat="43.80218" lon="7.00911">
        <ele>1100.3664551</ele>
        <time>2012-09-22T12:19:24Z</time>
      </trkpt>
      <trkpt lat="43.80232" lon="7.00827">
        <ele>1098.9240723</ele>
        <time>2012-09-22T12:19:36Z</time>
      </trkpt>
      <trkpt lat="43.80234" lon="7.00834">
        <ele>1096.5209961</ele>
        <time>2012-09-22T12:19:41Z</time>
      </trkpt>
      <trkpt lat="43.80206" lon="7.0079">
        <ele>1096.5209961</ele>
        <time>2012-09-22T12:19:45Z</time>
      </trkpt>
      <trkpt lat="43.80188" lon="7.00675">
        <ele>1083.5429688</ele>
        <time>2012-09-22T12:20:15Z</time>
      </trkpt>
      <trkpt lat="43.80266" lon="7.00453">
        <ele>1066.7199707</ele>
        <time>2012-09-22T12:21:39Z</time>
      </trkpt>
      <trkpt lat="43.80254" lon="7.00235">
        <ele>1070.0847168</ele>
        <time>2012-09-22T12:22:53Z</time>
      </trkpt>
      <trkpt lat="43.8023" lon="7.00207">
        <ele>1066.7199707</ele>
        <time>2012-09-22T12:22:59Z</time>
      </trkpt>
      <trkpt lat="43.80258" lon="7.00168">
        <ele>1072.4880371</ele>
        <time>2012-09-22T12:23:18Z</time>
      </trkpt>
      <trkpt lat="43.80241" lon="7.0004">
        <ele>1078.7365723</ele>
        <time>2012-09-22T12:24:05Z</time>
      </trkpt>
      <trkpt lat="43.80269" lon="6.99972">
        <ele>1079.217041</ele>
        <time>2012-09-22T12:28:47Z</time>
      </trkpt>
      <trkpt lat="43.80279" lon="6.99919">
        <ele>1075.3718262</ele>
        <time>2012-09-22T12:29:16Z</time>
      </trkpt>
      <trkpt lat="43.80281" lon="6.99889">
        <ele>1070.0847168</ele>
        <time>2012-09-22T12:29:40Z</time>
      </trkpt>
      <trkpt lat="43.80272" lon="6.99827">
        <ele>1064.3166504</ele>
        <time>2012-09-22T12:30:02Z</time>
      </trkpt>
      <trkpt lat="43.80209" lon="6.99695">
        <ele>1071.0461426</ele>
        <time>2012-09-22T12:30:47Z</time>
      </trkpt>
      <trkpt lat="43.80191" lon="6.9959">
        <ele>1064.3166504</ele>
        <time>2012-09-22T12:31:11Z</time>
      </trkpt>
      <trkpt lat="43.80147" lon="6.99539">
        <ele>1056.1455078</ele>
        <time>2012-09-22T12:31:36Z</time>
      </trkpt>
      <trkpt lat="43.80126" lon="6.99537">
        <ele>1053.2617188</ele>
        <time>2012-09-22T12:31:43Z</time>
      </trkpt>
      <trkpt lat="43.80128" lon="6.99523">
        <ele>1051.8195801</ele>
        <time>2012-09-22T12:31:49Z</time>
      </trkpt>
      <trkpt lat="43.80128" lon="6.99522">
        <ele>1049.8969727</ele>
        <time>2012-09-22T12:31:52Z</time>
      </trkpt>
      <trkpt lat="43.80106" lon="6.99507">
        <ele>1044.6096191</ele>
        <time>2012-09-22T12:31:59Z</time>
      </trkpt>
      <trkpt lat="43.8007" lon="6.99513">
        <ele>1036.4387207</ele>
        <time>2012-09-22T12:32:13Z</time>
      </trkpt>
      <trkpt lat="43.80041" lon="6.99551">
        <ele>1030.6706543</ele>
        <time>2012-09-22T12:32:29Z</time>
      </trkpt>
      <trkpt lat="43.80037" lon="6.99529">
        <ele>1025.8640137</ele>
        <time>2012-09-22T12:32:43Z</time>
      </trkpt>
      <trkpt lat="43.80024" lon="6.99551">
        <ele>1023.9414063</ele>
        <time>2012-09-22T12:32:54Z</time>
      </trkpt>
      <trkpt lat="43.80029" lon="6.99316">
        <ele>986.4499512</ele>
        <time>2012-09-22T12:34:37Z</time>
      </trkpt>
      <trkpt lat="43.79924" lon="6.9927">
        <ele>966.262207</ele>
        <time>2012-09-22T12:35:36Z</time>
      </trkpt>
      <trkpt lat="43.7987" lon="6.99165">
        <ele>950.4006348</ele>
        <time>2012-09-22T12:36:19Z</time>
      </trkpt>
      <trkpt lat="43.79848" lon="6.99115">
        <ele>940.7873535</ele>
        <time>2012-09-22T12:36:44Z</time>
      </trkpt>
      <trkpt lat="43.7984" lon="6.99068">
        <ele>936.4614258</ele>
        <time>2012-09-22T12:37:07Z</time>
      </trkpt>
      <trkpt lat="43.79892" lon="6.98921">
        <ele>927.3291016</ele>
        <time>2012-09-22T12:37:49Z</time>
      </trkpt>
      <trkpt lat="43.79896" lon="6.98831">
        <ele>926.8483887</ele>
        <time>2012-09-22T12:38:11Z</time>
      </trkpt>
      <trkpt lat="43.79908" lon="6.98772">
        <ele>921.560791</ele>
        <time>2012-09-22T12:38:26Z</time>
      </trkpt>
      <trkpt lat="43.79897" lon="6.98664">
        <ele>906.6604004</ele>
        <time>2012-09-22T12:39:45Z</time>
      </trkpt>
      <trkpt lat="43.79832" lon="6.98604">
        <ele>899.4506836</ele>
        <time>2012-09-22T12:40:09Z</time>
      </trkpt>
      <trkpt lat="43.79809" lon="6.98505">
        <ele>895.6054688</ele>
        <time>2012-09-22T12:40:34Z</time>
      </trkpt>
      <trkpt lat="43.79798" lon="6.9849">
        <ele>893.2021484</ele>
        <time>2012-09-22T12:40:40Z</time>
      </trkpt>
      <trkpt lat="43.7976" lon="6.98437">
        <ele>880.7050781</ele>
        <time>2012-09-22T12:41:04Z</time>
      </trkpt>
      <trkpt lat="43.79707" lon="6.98403">
        <ele>865.3239746</ele>
        <time>2012-09-22T12:41:42Z</time>
      </trkpt>
      <trkpt lat="43.79724" lon="6.98324">
        <ele>851.3847656</ele>
        <time>2012-09-22T12:42:11Z</time>
      </trkpt>
      <trkpt lat="43.79723" lon="6.98207">
        <ele>840.3295898</ele>
        <time>2012-09-22T12:42:43Z</time>
      </trkpt>
      <trkpt lat="43.79708" lon="6.9816">
        <ele>833.6003418</ele>
        <time>2012-09-22T12:42:56Z</time>
      </trkpt>
      <trkpt lat="43.79708" lon="6.98116">
        <ele>824.4677734</ele>
        <time>2012-09-22T12:43:15Z</time>
      </trkpt>
      <trkpt lat="43.79604" lon="6.9815">
        <ele>804.7607422</ele>
        <time>2012-09-22T12:43:41Z</time>
      </trkpt>
      <trkpt lat="43.79589" lon="6.98104">
        <ele>794.1862793</ele>
        <time>2012-09-22T12:44:42Z</time>
      </trkpt>
    </trkseg>
  </trk>
</gpx>